createdAt,value
2018-07-15T00:02:16.745Z,11.27
2018-07-15T00:04:44.746Z,10.77
2018-07-15T00:07:12.771Z,11.33
2018-07-15T00:09:40.790Z,10.67
2018-07-15T00:12:08.782Z,11.00
2018-07-15T00:14:36.790Z,10.70
2018-07-15T00:17:04.831Z,11.53
2018-07-15T00:19:32.839Z,10.90
2018-07-15T00:22:00.842Z,10.60
2018-07-15T00:24:28.835Z,12.27
2018-07-15T00:26:56.901Z,13.10
2018-07-15T00:29:24.891Z,12.67
2018-07-15T00:31:52.903Z,12.03
2018-07-15T00:34:20.907Z,11.40
2018-07-15T00:36:48.904Z,12.27
2018-07-15T00:39:16.903Z,14.87
2018-07-15T00:41:44.907Z,13.67
2018-07-15T00:44:12.895Z,13.33
2018-07-15T00:46:40.897Z,13.50
2018-07-15T00:49:08.896Z,12.13
2018-07-15T00:51:36.911Z,13.00
2018-07-15T00:54:04.926Z,13.30
2018-07-15T00:56:32.954Z,10.90
2018-07-15T00:59:00.950Z,12.77
2018-07-15T01:01:28.966Z,12.63
2018-07-15T01:03:56.956Z,12.63
2018-07-15T01:06:24.946Z,10.93
2018-07-15T01:08:52.966Z,10.07
2018-07-15T01:11:20.968Z,9.43
2018-07-15T01:13:48.999Z,10.37
2018-07-15T01:16:16.982Z,11.00
2018-07-15T01:18:44.992Z,10.60
2018-07-15T01:21:12.986Z,10.73
2018-07-15T01:23:40.995Z,9.87
2018-07-15T01:26:09.000Z,9.70
2018-07-15T01:28:37.018Z,9.53
2018-07-15T01:31:04.996Z,7.80
2018-07-15T01:33:32.990Z,8.83
2018-07-15T01:36:00.990Z,9.23
2018-07-15T01:38:28.989Z,9.70
2018-07-15T01:40:56.973Z,9.83
2018-07-15T01:43:24.974Z,8.97
2018-07-15T01:45:52.970Z,9.13
2018-07-15T01:48:20.967Z,8.80
2018-07-15T01:50:48.962Z,10.43
2018-07-15T01:53:16.967Z,9.60
2018-07-15T01:55:44.960Z,8.53
2018-07-15T01:58:12.979Z,8.60
2018-07-15T02:00:40.966Z,8.70
2018-07-15T02:03:08.975Z,10.70
2018-07-15T02:05:36.970Z,8.30
2018-07-15T02:08:04.971Z,8.50
2018-07-15T02:10:32.967Z,7.90
2018-07-15T02:13:00.960Z,8.53
2018-07-15T02:15:28.946Z,9.07
2018-07-15T02:17:56.950Z,10.00
2018-07-15T02:20:24.951Z,10.23
2018-07-15T02:22:52.967Z,10.50
2018-07-15T02:25:20.968Z,11.27
2018-07-15T02:27:48.966Z,11.40
2018-07-15T02:30:16.978Z,9.83
2018-07-15T02:32:44.954Z,11.23
2018-07-15T02:35:12.957Z,8.63
2018-07-15T02:37:40.942Z,9.73
2018-07-15T02:40:08.945Z,8.90
2018-07-15T02:42:36.939Z,10.00
2018-07-15T02:45:04.951Z,10.30
2018-07-15T02:47:32.943Z,11.17
2018-07-15T02:50:00.956Z,10.70
2018-07-15T02:52:28.971Z,8.57
2018-07-15T02:54:56.975Z,10.00
2018-07-15T02:57:24.999Z,9.70
2018-07-15T02:59:53.022Z,10.40
2018-07-15T03:02:21.022Z,9.80
2018-07-15T03:04:49.039Z,10.23
2018-07-15T03:07:17.042Z,10.07
2018-07-15T03:09:45.054Z,9.27
2018-07-15T03:12:13.058Z,9.20
2018-07-15T03:14:41.071Z,8.90
2018-07-15T03:17:09.105Z,8.77
2018-07-15T03:19:37.109Z,8.80
2018-07-15T03:22:05.128Z,8.17
2018-07-15T03:24:33.130Z,8.53
2018-07-15T03:27:01.134Z,9.50
2018-07-15T03:29:29.142Z,8.80
2018-07-15T03:31:57.142Z,9.57
2018-07-15T03:34:25.186Z,10.13
2018-07-15T03:36:53.293Z,9.57
2018-07-15T03:39:21.307Z,7.50
2018-07-15T03:41:49.319Z,9.50
2018-07-15T03:44:17.336Z,9.13
2018-07-15T03:46:45.348Z,10.00
2018-07-15T03:49:13.362Z,9.90
2018-07-15T03:51:41.370Z,9.50
2018-07-15T03:54:09.394Z,10.17
2018-07-15T03:56:37.395Z,8.03
2018-07-15T03:59:05.419Z,9.17
2018-07-15T04:01:33.452Z,9.27
2018-07-15T04:04:01.465Z,10.00
2018-07-15T04:06:29.482Z,9.43
2018-07-15T04:08:57.549Z,9.60
2018-07-15T04:11:25.534Z,9.60
2018-07-15T04:13:53.553Z,9.67
2018-07-15T04:16:21.571Z,10.03
2018-07-15T04:18:49.574Z,8.70
2018-07-15T04:21:17.578Z,9.20
2018-07-15T04:23:45.592Z,9.80
2018-07-15T04:26:13.599Z,8.90
2018-07-15T04:28:41.603Z,9.20
2018-07-15T04:31:09.622Z,8.87
2018-07-15T04:33:37.622Z,9.60
2018-07-15T04:36:05.642Z,8.90
2018-07-15T04:38:33.678Z,7.83
2018-07-15T04:41:01.698Z,7.90
2018-07-15T04:43:29.742Z,6.73
2018-07-15T04:45:57.727Z,7.27
2018-07-15T04:48:25.728Z,8.00
2018-07-15T04:50:53.741Z,7.87
2018-07-15T04:53:21.750Z,7.83
2018-07-15T04:55:49.765Z,8.33
2018-07-15T04:58:17.765Z,8.87
2018-07-15T05:00:45.786Z,7.70
2018-07-15T05:03:13.790Z,8.53
2018-07-15T05:05:41.798Z,9.60
2018-07-15T05:08:09.808Z,10.20
2018-07-15T05:10:37.818Z,9.60
2018-07-15T05:13:05.820Z,9.00
2018-07-15T05:15:33.838Z,9.33
2018-07-15T05:18:01.909Z,8.07
2018-07-15T05:20:29.920Z,8.53
2018-07-15T05:22:57.919Z,8.00
2018-07-15T05:25:26.082Z,8.17
2018-07-15T05:27:54.113Z,8.17
2018-07-15T05:30:22.121Z,8.43
2018-07-15T05:32:50.144Z,7.70
2018-07-15T05:35:18.145Z,8.33
2018-07-15T05:37:46.167Z,9.03
2018-07-15T05:40:14.158Z,9.37
2018-07-15T05:42:42.163Z,9.77
2018-07-15T05:45:10.340Z,9.37
2018-07-15T05:47:38.466Z,9.20
2018-07-15T05:50:06.563Z,9.40
2018-07-15T05:52:34.679Z,8.70
2018-07-15T05:55:02.807Z,9.83
2018-07-15T05:57:30.871Z,8.10
2018-07-15T05:59:58.877Z,9.20
2018-07-15T06:02:26.952Z,7.40
2018-07-15T06:04:54.959Z,8.27
2018-07-15T06:07:22.983Z,7.30
2018-07-15T06:09:50.974Z,8.13
2018-07-15T06:12:18.970Z,6.80
2018-07-15T06:14:46.964Z,6.60
2018-07-15T06:17:15.070Z,5.70
2018-07-15T06:19:42.961Z,5.73
2018-07-15T06:22:10.962Z,6.83
2018-07-15T06:24:38.957Z,5.60
2018-07-15T06:27:06.959Z,4.97
2018-07-15T06:29:34.946Z,6.03
2018-07-15T06:32:02.961Z,4.40
2018-07-15T06:34:30.942Z,4.70
2018-07-15T06:36:58.938Z,5.33
2018-07-15T06:39:26.938Z,4.97
2018-07-15T06:41:54.943Z,5.53
2018-07-15T06:44:22.931Z,3.93
2018-07-15T06:46:50.922Z,4.30
2018-07-15T06:49:19.024Z,4.77
2018-07-15T06:51:46.927Z,5.00
2018-07-15T06:54:14.907Z,4.30
2018-07-15T06:56:42.993Z,4.93
2018-07-15T06:59:11.011Z,4.17
2018-07-15T07:01:39.058Z,4.47
2018-07-15T07:04:07.018Z,4.57
2018-07-15T07:06:35.083Z,5.23
2018-07-15T07:09:04.518Z,4.70
2018-07-15T07:11:32.580Z,4.43
2018-07-15T07:14:00.593Z,4.27
2018-07-15T07:16:28.671Z,4.57
2018-07-15T07:18:56.755Z,4.90
2018-07-15T07:21:24.770Z,4.20
2018-07-15T07:23:52.783Z,4.70
2018-07-15T07:26:20.805Z,3.80
2018-07-15T07:28:48.926Z,4.00
2018-07-15T07:31:16.959Z,4.00
2018-07-15T07:33:45.063Z,4.17
2018-07-15T07:36:13.314Z,4.50
2018-07-15T07:38:41.415Z,4.03
2018-07-15T07:41:09.616Z,3.77
2018-07-15T07:43:37.771Z,3.87
2018-07-15T07:46:05.839Z,4.10
2018-07-15T07:48:34.211Z,4.20
2018-07-15T07:51:02.377Z,3.80
2018-07-15T07:53:30.490Z,3.30
2018-07-15T07:55:58.644Z,3.90
2018-07-15T07:58:26.768Z,3.80
2018-07-15T08:00:54.895Z,3.10
2018-07-15T08:03:23.057Z,3.30
2018-07-15T08:05:51.430Z,3.27
2018-07-15T08:08:19.496Z,3.60
2018-07-15T08:10:47.783Z,3.37
2018-07-15T08:13:15.897Z,3.23
2018-07-15T08:15:56.684Z,2.27
2018-07-15T08:18:24.794Z,2.83
2018-07-15T08:20:52.863Z,3.10
2018-07-15T08:23:21.157Z,2.80
2018-07-15T08:25:50.200Z,2.60
2018-07-15T08:28:18.457Z,2.60
2018-07-15T08:30:52.042Z,2.70
2018-07-15T08:33:20.200Z,2.37
2018-07-15T08:35:49.023Z,2.63
2018-07-15T08:38:17.279Z,2.40
2018-07-15T08:40:45.563Z,3.47
2018-07-15T08:43:13.644Z,3.20
2018-07-15T08:45:41.802Z,2.40
2018-07-15T08:48:09.918Z,2.50
2018-07-15T08:50:38.325Z,3.20
2018-07-15T08:53:06.584Z,2.47
2018-07-15T08:55:34.713Z,3.23
2018-07-15T08:58:02.756Z,2.57
2018-07-15T09:00:30.959Z,2.57
2018-07-15T09:02:59.114Z,2.50
2018-07-15T09:05:27.396Z,2.53
2018-07-15T09:07:56.598Z,2.37
2018-07-15T09:10:24.828Z,3.07
2018-07-15T09:12:53.432Z,1.97
2018-07-15T09:15:21.513Z,2.27
2018-07-15T09:17:49.676Z,1.97
2018-07-15T09:20:17.838Z,2.13
2018-07-15T09:22:47.307Z,2.57
2018-07-15T09:25:15.379Z,2.70
2018-07-15T09:27:43.445Z,2.13
2018-07-15T09:30:11.632Z,2.13
2018-07-15T09:32:39.701Z,2.00
2018-07-15T09:35:07.975Z,1.60
2018-07-15T09:37:36.285Z,1.97
2018-07-15T09:40:04.508Z,2.03
2018-07-15T09:42:32.905Z,2.07
2018-07-15T09:45:01.045Z,2.33
2018-07-15T09:47:29.130Z,2.27
2018-07-15T09:50:00.652Z,1.70
2018-07-15T09:52:28.871Z,2.30
2018-07-15T09:54:57.624Z,2.10
2018-07-15T09:57:25.694Z,1.80
2018-07-15T09:59:53.771Z,1.70
2018-07-15T10:02:22.085Z,1.90
2018-07-15T10:04:50.470Z,2.40
2018-07-15T10:07:18.711Z,1.90
2018-07-15T10:09:47.410Z,1.90
2018-07-15T10:12:15.517Z,2.30
2018-07-15T10:14:43.755Z,2.13
2018-07-15T10:17:12.070Z,2.50
2018-07-15T10:19:40.214Z,1.93
2018-07-15T10:22:08.392Z,2.40
2018-07-15T10:24:36.696Z,2.00
2018-07-15T10:27:05.083Z,2.40
2018-07-15T10:29:33.221Z,1.90
2018-07-15T10:32:01.488Z,2.63
2018-07-15T10:34:29.676Z,1.83
2018-07-15T10:36:58.028Z,1.93
2018-07-15T10:39:26.346Z,2.13
2018-07-15T10:41:54.917Z,1.57
2018-07-15T10:44:23.103Z,1.90
2018-07-15T10:46:51.320Z,2.10
2018-07-15T10:49:19.631Z,1.80
2018-07-15T10:51:47.760Z,2.83
2018-07-15T10:54:16.495Z,2.20
2018-07-15T10:56:44.570Z,2.40
2018-07-15T10:59:13.149Z,2.53
2018-07-15T11:01:42.644Z,2.10
2018-07-15T11:04:10.857Z,2.23
2018-07-15T11:06:39.080Z,2.37
2018-07-15T11:09:07.360Z,2.67
2018-07-15T11:11:35.566Z,2.07
2018-07-15T11:14:04.024Z,2.40
2018-07-15T11:16:32.250Z,2.40
2018-07-15T11:19:00.320Z,2.40
2018-07-15T11:21:28.661Z,2.13
2018-07-15T11:23:57.250Z,2.17
2018-07-15T11:26:25.817Z,2.17
2018-07-15T11:28:54.865Z,2.20
2018-07-15T11:31:23.452Z,1.60
2018-07-15T11:33:52.673Z,1.73
2018-07-15T11:36:20.820Z,2.17
2018-07-15T11:38:49.369Z,2.30
2018-07-15T11:41:17.702Z,2.33
2018-07-15T11:43:46.470Z,2.27
2018-07-15T11:46:14.970Z,1.80
2018-07-15T11:48:43.261Z,1.80
2018-07-15T11:51:12.811Z,2.20
2018-07-15T11:53:44.778Z,1.70
2018-07-15T11:56:13.400Z,1.73
2018-07-15T11:58:41.655Z,1.70
2018-07-15T12:01:09.897Z,1.80
2018-07-15T12:03:38.330Z,1.53
2018-07-15T12:06:06.881Z,1.80
2018-07-15T12:08:35.079Z,2.10
2018-07-15T12:11:03.630Z,1.80
2018-07-15T12:13:32.322Z,1.70
2018-07-15T12:16:00.973Z,1.90
2018-07-15T12:18:29.371Z,1.87
2018-07-15T12:21:00.487Z,1.70
2018-07-15T12:23:30.827Z,1.60
2018-07-15T12:26:01.474Z,2.00
2018-07-15T12:28:31.472Z,1.33
2018-07-15T12:31:00.377Z,1.90
2018-07-15T12:33:29.106Z,1.60
2018-07-15T12:35:59.008Z,2.00
2018-07-15T12:38:27.523Z,1.97
2018-07-15T12:40:56.363Z,1.60
2018-07-15T12:43:24.576Z,2.00
2018-07-15T12:45:52.967Z,1.60
2018-07-15T12:48:21.147Z,1.70
2018-07-15T12:50:49.559Z,2.13
2018-07-15T12:53:17.725Z,2.27
2018-07-15T12:55:46.021Z,1.80
2018-07-15T12:58:14.467Z,1.97
2018-07-15T13:00:42.968Z,2.00
2018-07-15T13:03:11.458Z,2.37
2018-07-15T13:05:39.695Z,2.03
2018-07-15T13:08:08.183Z,1.93
2018-07-15T13:10:36.446Z,1.90
2018-07-15T13:13:04.627Z,1.80
2018-07-15T13:15:32.715Z,1.70
2018-07-15T13:18:01.059Z,1.80
2018-07-15T13:20:29.229Z,2.43
2018-07-15T13:22:57.779Z,1.70
2018-07-15T13:25:25.876Z,1.70
2018-07-15T13:27:54.143Z,1.83
2018-07-15T13:30:22.233Z,2.33
2018-07-15T13:32:50.348Z,2.40
2018-07-15T13:35:18.567Z,2.50
2018-07-15T13:37:46.942Z,2.50
2018-07-15T13:40:15.349Z,2.00
2018-07-15T13:42:43.633Z,2.43
2018-07-15T13:45:11.955Z,2.30
2018-07-15T13:47:40.071Z,2.17
2018-07-15T13:50:08.487Z,2.60
2018-07-15T13:52:36.641Z,2.30
2018-07-15T13:55:05.334Z,2.20
2018-07-15T13:57:33.362Z,2.80
2018-07-15T14:00:01.452Z,2.37
2018-07-15T14:02:29.878Z,2.23
2018-07-15T14:04:58.103Z,2.33
2018-07-15T14:07:26.327Z,2.50
2018-07-15T14:09:54.441Z,2.73
2018-07-15T14:12:23.338Z,2.43
2018-07-15T14:14:51.672Z,2.77
2018-07-15T14:17:20.207Z,2.77
2018-07-15T14:19:48.467Z,2.80
2018-07-15T14:22:16.736Z,2.50
2018-07-15T14:24:45.081Z,2.70
2018-07-15T14:27:13.256Z,3.00
2018-07-15T14:29:41.477Z,2.57
2018-07-15T14:32:09.944Z,2.90
2018-07-15T14:34:38.085Z,2.50
2018-07-15T14:37:06.416Z,3.40
2018-07-15T14:39:38.709Z,3.07
2018-07-15T14:42:07.260Z,3.17
2018-07-15T14:44:37.125Z,3.30
2018-07-15T14:47:05.550Z,3.17
2018-07-15T14:49:33.900Z,3.00
2018-07-15T14:52:02.074Z,3.40
2018-07-15T14:54:30.236Z,2.90
2018-07-15T14:56:58.272Z,3.57
2018-07-15T14:59:26.466Z,2.17
2018-07-15T15:01:55.505Z,2.80
2018-07-15T15:04:23.532Z,2.50
2018-07-15T15:06:51.638Z,3.50
2018-07-15T15:09:20.497Z,3.80
2018-07-15T15:11:48.823Z,3.90
2018-07-15T15:14:16.885Z,2.87
2018-07-15T15:16:44.979Z,3.23
2018-07-15T15:19:13.294Z,2.90
2018-07-15T15:21:41.949Z,2.63
2018-07-15T15:24:09.975Z,2.53
2018-07-15T15:26:38.004Z,2.70
2018-07-15T15:29:06.781Z,2.90
2018-07-15T15:31:35.390Z,2.77
2018-07-15T15:34:03.723Z,2.77
2018-07-15T15:36:31.994Z,2.93
2018-07-15T15:39:00.228Z,3.00
2018-07-15T15:41:28.453Z,3.00
2018-07-15T15:43:56.947Z,3.40
2018-07-15T15:46:25.533Z,3.80
2018-07-15T15:48:54.797Z,3.30
2018-07-15T15:51:23.522Z,3.80
2018-07-15T15:53:53.302Z,4.13
2018-07-15T15:56:21.576Z,5.13
2018-07-15T15:58:49.696Z,3.63
2018-07-15T16:01:20.160Z,3.60
2018-07-15T16:03:48.347Z,3.60
2018-07-15T16:06:16.894Z,4.20
2018-07-15T16:08:45.079Z,4.20
2018-07-15T16:11:13.206Z,3.80
2018-07-15T16:13:41.359Z,3.30
2018-07-15T16:16:09.759Z,3.90
2018-07-15T16:18:38.065Z,3.57
2018-07-15T16:21:06.289Z,3.10
2018-07-15T16:23:34.502Z,3.40
2018-07-15T16:26:02.640Z,4.20
2018-07-15T16:28:30.764Z,3.73
2018-07-15T16:30:58.939Z,4.10
2018-07-15T16:33:26.991Z,3.53
2018-07-15T16:35:55.205Z,3.53
2018-07-15T16:38:26.320Z,4.07
2018-07-15T16:40:54.479Z,3.70
2018-07-15T16:43:22.845Z,4.37
2018-07-15T16:45:50.970Z,3.90
2018-07-15T16:48:19.380Z,4.00
2018-07-15T16:50:47.463Z,3.90
2018-07-15T16:53:15.648Z,3.73
2018-07-15T16:55:43.933Z,4.83
2018-07-15T16:58:12.516Z,4.17
2018-07-15T17:00:40.589Z,4.30
2018-07-15T17:03:08.788Z,4.20
2018-07-15T17:05:36.978Z,4.23
2018-07-15T17:08:05.139Z,3.23
2018-07-15T17:10:33.634Z,3.50
2018-07-15T17:13:02.066Z,4.27
2018-07-15T17:15:30.091Z,4.30
2018-07-15T17:17:58.264Z,3.87
2018-07-15T17:20:26.503Z,3.60
2018-07-15T17:22:54.598Z,4.20
2018-07-15T17:25:24.162Z,4.00
2018-07-15T17:27:52.281Z,4.20
2018-07-15T17:30:20.456Z,4.27
2018-07-15T17:32:48.969Z,3.77
2018-07-15T17:35:17.034Z,3.13
2018-07-15T17:37:45.383Z,3.30
2018-07-15T17:40:13.876Z,3.63
2018-07-15T17:42:42.041Z,3.40
2018-07-15T17:45:10.311Z,3.70
2018-07-15T17:47:38.508Z,3.30
2018-07-15T17:50:06.595Z,3.50
2018-07-15T17:52:34.771Z,3.13
2018-07-15T17:55:02.798Z,3.60
2018-07-15T17:57:30.841Z,3.07
2018-07-15T17:59:59.123Z,3.27
2018-07-15T18:02:27.384Z,3.50
2018-07-15T18:04:55.597Z,3.60
2018-07-15T18:07:23.758Z,3.40
2018-07-15T18:09:51.951Z,3.77
2018-07-15T18:12:20.085Z,3.17
2018-07-15T18:14:48.307Z,3.97
2018-07-15T18:17:16.592Z,3.70
2018-07-15T18:19:45.372Z,3.53
2018-07-15T18:22:14.055Z,3.57
2018-07-15T18:24:42.330Z,4.30
2018-07-15T18:27:10.652Z,4.37
2018-07-15T18:29:38.686Z,3.77
2018-07-15T18:32:07.224Z,3.70
2018-07-15T18:34:35.418Z,3.70
2018-07-15T18:37:03.619Z,3.80
2018-07-15T18:39:31.803Z,3.33
2018-07-15T18:41:59.999Z,3.67
2018-07-15T18:44:28.284Z,3.63
2018-07-15T18:46:56.618Z,4.00
2018-07-15T18:49:24.933Z,3.57
2018-07-15T18:51:53.032Z,4.13
2018-07-15T18:54:21.400Z,3.60
2018-07-15T18:56:49.719Z,3.73
2018-07-15T18:59:17.933Z,3.50
2018-07-15T19:01:46.091Z,2.80
2018-07-15T19:04:14.365Z,3.50
2018-07-15T19:06:42.594Z,2.77
2018-07-15T19:09:10.849Z,3.37
2018-07-15T19:11:38.866Z,3.70
2018-07-15T19:14:06.859Z,3.23
2018-07-15T19:16:34.844Z,3.57
2018-07-15T19:19:02.808Z,3.30
2018-07-15T19:21:30.748Z,3.70
2018-07-15T19:23:58.685Z,3.77
2018-07-15T19:26:26.678Z,3.17
2018-07-15T19:28:54.671Z,3.23
2018-07-15T19:31:22.723Z,3.97
2018-07-15T19:33:51.005Z,3.60
2018-07-15T19:36:18.929Z,3.20
2018-07-15T19:38:47.166Z,3.13
2018-07-15T19:41:15.177Z,3.23
2018-07-15T19:43:43.254Z,3.90
2018-07-15T19:46:11.406Z,3.90
2018-07-15T19:48:39.409Z,3.20
2018-07-15T19:51:07.403Z,3.40
2018-07-15T19:53:35.398Z,4.47
2018-07-15T19:56:03.395Z,3.80
2018-07-15T19:58:31.399Z,4.03
2018-07-15T20:00:59.432Z,4.20
2018-07-15T20:03:27.406Z,3.70
2018-07-15T20:05:55.410Z,3.57
2018-07-15T20:08:23.418Z,4.60
2018-07-15T20:10:51.422Z,3.93
2018-07-15T20:13:19.370Z,3.40
2018-07-15T20:15:47.375Z,3.83
2018-07-15T20:18:15.365Z,4.77
2018-07-15T20:20:43.411Z,4.03
2018-07-15T20:23:11.365Z,4.73
2018-07-15T20:25:39.366Z,4.70
2018-07-15T20:28:07.353Z,4.23
2018-07-15T20:30:35.355Z,4.23
2018-07-15T20:33:03.345Z,4.07
2018-07-15T20:35:31.356Z,3.60
2018-07-15T20:37:59.354Z,4.07
2018-07-15T20:40:27.374Z,4.43
2018-07-15T20:42:55.374Z,4.53
2018-07-15T20:45:23.370Z,4.73
2018-07-15T20:47:51.363Z,5.90
2018-07-15T20:50:19.383Z,4.93
2018-07-15T20:52:47.370Z,5.93
2018-07-15T20:55:15.346Z,5.53
2018-07-15T20:57:43.337Z,5.80
2018-07-15T21:00:11.338Z,5.17
2018-07-15T21:02:39.371Z,5.20
2018-07-15T21:05:07.338Z,5.50
2018-07-15T21:07:35.350Z,5.70
2018-07-15T21:10:03.350Z,5.27
2018-07-15T21:12:31.351Z,5.03
2018-07-15T21:14:59.358Z,5.07
2018-07-15T21:17:27.427Z,5.83
2018-07-15T21:19:55.430Z,6.20
2018-07-15T21:22:23.422Z,5.67
2018-07-15T21:24:51.438Z,5.27
2018-07-15T21:27:19.439Z,5.07
2018-07-15T21:29:47.442Z,4.80
2018-07-15T21:32:15.493Z,5.33
2018-07-15T21:34:43.499Z,5.77
2018-07-15T21:37:11.505Z,6.50
2018-07-15T21:39:39.504Z,5.67
2018-07-15T21:42:07.602Z,5.57
2018-07-15T21:44:35.622Z,6.00
2018-07-15T21:47:03.644Z,7.00
2018-07-15T21:49:31.844Z,6.20
2018-07-15T21:51:59.850Z,6.03
2018-07-15T21:54:27.834Z,5.80
2018-07-15T21:56:55.920Z,5.87
2018-07-15T21:59:23.922Z,5.90
2018-07-15T22:01:51.925Z,6.60
2018-07-15T22:04:19.947Z,6.23
2018-07-15T22:06:53.522Z,6.90
2018-07-15T22:09:27.720Z,5.90
2018-07-15T22:11:55.894Z,6.40
2018-07-15T22:14:23.919Z,5.60
2018-07-15T22:16:51.926Z,5.97
2018-07-15T22:19:20.114Z,5.53
2018-07-15T22:21:48.118Z,6.27
2018-07-15T22:24:16.245Z,5.90
2018-07-15T22:26:44.245Z,5.60
2018-07-15T22:29:12.246Z,6.37
2018-07-15T22:31:40.242Z,6.60
2018-07-15T22:34:08.230Z,6.37
2018-07-15T22:36:36.751Z,6.83
2018-07-15T22:39:06.042Z,6.60
2018-07-15T22:41:34.174Z,7.07
2018-07-15T22:44:02.170Z,6.73
2018-07-15T22:46:30.178Z,6.57
2018-07-15T22:48:58.170Z,6.93
2018-07-15T22:51:26.186Z,5.97
2018-07-15T22:53:54.186Z,6.23
2018-07-15T22:56:22.194Z,7.57
2018-07-15T22:58:50.201Z,6.13
2018-07-15T23:01:18.199Z,6.70
2018-07-15T23:03:46.207Z,6.37
2018-07-15T23:06:15.835Z,6.97
2018-07-15T23:08:43.861Z,7.20
2018-07-15T23:11:11.865Z,6.70
2018-07-15T23:13:39.872Z,6.67
2018-07-15T23:16:07.954Z,7.00
2018-07-15T23:18:35.955Z,6.33
2018-07-15T23:21:03.958Z,6.20
2018-07-15T23:23:31.965Z,7.10
2018-07-15T23:25:59.978Z,7.13
2018-07-15T23:28:28.808Z,7.37
2018-07-15T23:30:56.825Z,6.97
2018-07-15T23:33:24.818Z,7.87
2018-07-15T23:35:52.816Z,7.30
2018-07-15T23:38:20.815Z,7.13
2018-07-15T23:40:48.817Z,7.47
2018-07-15T23:43:16.816Z,6.63
2018-07-15T23:45:44.817Z,7.27
2018-07-15T23:48:12.812Z,7.33
2018-07-15T23:50:40.819Z,6.70
2018-07-15T23:53:08.818Z,6.57
2018-07-15T23:55:36.811Z,7.63
2018-07-15T23:58:04.821Z,6.23
